sensor_id;sensor_type;location;lat;lon;timestamp;pressure;altitude;pressure_sealevel;temperature;humidity
16431;BME280;8325;49.284;7.238;2023-05-19T04:03:33;99306.44;;;8.10;79.89
16431;BME280;8325;49.284;7.238;2023-05-19T04:07:45;99317.00;;;8.08;79.72
16431;BME280;8325;49.284;7.238;2023-05-19T04:11:57;99312.47;;;8.10;80.14
16431;BME280;8325;49.284;7.238;2023-05-19T04:16:08;99317.53;;;8.12;79.46
16431;BME280;8325;49.284;7.238;2023-05-19T04:20:20;99318.31;;;8.22;78.94
16431;BME280;8325;49.284;7.238;2023-05-19T04:24:32;99319.84;;;8.24;78.76
16431;BME280;8325;49.284;7.238;2023-05-19T04:28:44;99314.22;;;8.29;78.95
16431;BME280;8325;49.284;7.238;2023-05-19T04:32:56;99316.09;;;8.37;78.73
16431;BME280;8325;49.284;7.238;2023-05-19T04:37:08;99315.81;;;8.49;77.94
16431;BME280;8325;49.284;7.238;2023-05-19T04:41:21;99319.97;;;8.42;78.38
16431;BME280;8325;49.284;7.238;2023-05-19T04:45:33;99324.03;;;8.55;77.78
16431;BME280;8325;49.284;7.238;2023-05-19T04:49:47;99324.44;;;8.60;77.36
16431;BME280;8325;49.284;7.238;2023-05-19T04:53:59;99317.59;;;8.59;77.29
16431;BME280;8325;49.284;7.238;2023-05-19T04:58:10;99323.41;;;8.80;76.28
16431;BME280;8325;49.284;7.238;2023-05-19T05:02:22;99313.56;;;8.74;76.40
16431;BME280;8325;49.284;7.238;2023-05-19T05:06:34;99313.38;;;8.85;75.96
16431;BME280;8325;49.284;7.238;2023-05-19T05:10:51;99313.19;;;8.96;75.70
16431;BME280;8325;49.284;7.238;2023-05-19T05:15:04;99315.34;;;9.01;75.83
16431;BME280;8325;49.284;7.238;2023-05-19T05:19:17;99310.94;;;9.02;75.26
16431;BME280;8325;49.284;7.238;2023-05-19T05:23:29;99307.88;;;9.16;75.01
16431;BME280;8325;49.284;7.238;2023-05-19T05:27:41;99308.84;;;9.33;74.83
16431;BME280;8325;49.284;7.238;2023-05-19T05:31:53;99312.25;;;10.49;69.66
16431;BME280;8325;49.284;7.238;2023-05-19T05:36:06;99305.44;;;12.47;61.96
16431;BME280;8325;49.284;7.238;2023-05-19T05:40:24;99306.56;;;13.00;59.21
16431;BME280;8325;49.284;7.238;2023-05-19T05:44:37;99296.88;;;13.40;56.54
16431;BME280;8325;49.284;7.238;2023-05-19T05:48:50;99289.75;;;15.28;51.13
16431;BME280;8325;49.284;7.238;2023-05-19T05:53:02;99294.81;;;14.93;52.25
16431;BME280;8325;49.284;7.238;2023-05-19T05:57:18;99307.91;;;14.34;54.30
16431;BME280;8325;49.284;7.238;2023-05-19T06:01:30;99301.19;;;13.79;55.14
16431;BME280;8325;49.284;7.238;2023-05-19T06:05:45;99298.50;;;13.87;54.94
16431;BME280;8325;49.284;7.238;2023-05-19T06:09:57;99284.72;;;13.39;57.07
16431;BME280;8325;49.284;7.238;2023-05-19T06:14:09;99298.56;;;14.17;55.26
16431;BME280;8325;49.284;7.238;2023-05-19T06:18:50;99289.69;;;15.07;51.95
16431;BME280;8325;49.284;7.238;2023-05-19T06:23:01;99291.38;;;13.73;55.59
16431;BME280;8325;49.284;7.238;2023-05-19T06:27:14;99297.81;;;13.47;57.30
16431;BME280;8325;49.284;7.238;2023-05-19T06:31:27;99286.72;;;13.83;56.57
16431;BME280;8325;49.284;7.238;2023-05-19T06:35:42;99287.47;;;14.07;55.50
16431;BME280;8325;49.284;7.238;2023-05-19T06:39:54;99286.72;;;13.83;56.88
16431;BME280;8325;49.284;7.238;2023-05-19T06:44:06;99289.09;;;13.70;57.17
16431;BME280;8325;49.284;7.238;2023-05-19T06:48:19;99293.78;;;13.59;57.51
16431;BME280;8325;49.284;7.238;2023-05-19T06:52:31;99294.44;;;13.62;58.11
16431;BME280;8325;49.284;7.238;2023-05-19T06:56:45;99297.34;;;13.67;57.66
16431;BME280;8325;49.284;7.238;2023-05-19T07:00:58;99304.13;;;13.61;56.92
16431;BME280;8325;49.284;7.238;2023-05-19T07:05:15;99298.38;;;13.57;57.72
16431;BME280;8325;49.284;7.238;2023-05-19T07:09:32;99298.16;;;13.67;57.00
16431;BME280;8325;49.284;7.238;2023-05-19T07:13:43;99298.84;;;13.84;56.33
16431;BME280;8325;49.284;7.238;2023-05-19T07:17:57;99289.66;;;13.65;56.99
16431;BME280;8325;49.284;7.238;2023-05-19T07:22:09;99294.84;;;14.11;56.36
16431;BME280;8325;49.284;7.238;2023-05-19T07:26:21;99293.09;;;14.03;55.89
16431;BME280;8325;49.284;7.238;2023-05-19T07:30:33;99283.44;;;13.35;57.34
16431;BME280;8325;49.284;7.238;2023-05-19T07:34:45;99286.81;;;13.67;57.25
16431;BME280;8325;49.284;7.238;2023-05-19T07:38:56;99289.75;;;13.95;57.43
16431;BME280;8325;49.284;7.238;2023-05-19T07:43:08;99278.03;;;13.97;56.58
16431;BME280;8325;49.284;7.238;2023-05-19T07:47:19;99283.53;;;14.40;55.70
16431;BME280;8325;49.284;7.238;2023-05-19T07:51:31;99285.81;;;14.43;54.71
16431;BME280;8325;49.284;7.238;2023-05-19T07:55:43;99284.75;;;14.38;54.79
16431;BME280;8325;49.284;7.238;2023-05-19T07:59:55;99284.53;;;14.24;55.07
16431;BME280;8325;49.284;7.238;2023-05-19T08:04:07;99279.66;;;14.36;54.30
16431;BME280;8325;49.284;7.238;2023-05-19T08:08:23;99286.19;;;14.25;54.91
16431;BME280;8325;49.284;7.238;2023-05-19T08:12:35;99284.16;;;14.27;55.17
16431;BME280;8325;49.284;7.238;2023-05-19T08:16:48;99273.31;;;14.45;54.64
16431;BME280;8325;49.284;7.238;2023-05-19T08:21:03;99265.19;;;14.70;54.73
16431;BME280;8325;49.284;7.238;2023-05-19T08:25:15;99265.44;;;14.75;54.52
16431;BME280;8325;49.284;7.238;2023-05-19T08:29:28;99266.84;;;14.92;54.61
16431;BME280;8325;49.284;7.238;2023-05-19T08:34:18;99256.00;;;14.81;54.60
16431;BME280;8325;49.284;7.238;2023-05-19T08:38:31;99252.66;;;14.72;56.45
16431;BME280;8325;49.284;7.238;2023-05-19T08:42:44;99245.22;;;14.76;56.28
16431;BME280;8325;49.284;7.238;2023-05-19T08:47:00;99242.66;;;14.97;54.33
16431;BME280;8325;49.284;7.238;2023-05-19T08:51:22;99240.75;;;14.91;55.57
16431;BME280;8325;49.284;7.238;2023-05-19T08:55:45;99227.56;;;15.06;55.28
16431;BME280;8325;49.284;7.238;2023-05-19T09:00:01;99223.72;;;15.08;55.48
16431;BME280;8325;49.284;7.238;2023-05-19T09:04:15;99219.75;;;15.12;56.74
16431;BME280;8325;49.284;7.238;2023-05-19T09:08:27;99218.19;;;15.18;55.28
16431;BME280;8325;49.284;7.238;2023-05-19T09:12:40;99214.91;;;15.16;55.21
16431;BME280;8325;49.284;7.238;2023-05-19T09:16:52;99204.56;;;15.36;54.13
16431;BME280;8325;49.284;7.238;2023-05-19T09:21:04;99202.25;;;15.26;53.34
16431;BME280;8325;49.284;7.238;2023-05-19T09:29:30;99190.19;;;15.60;53.08
16431;BME280;8325;49.284;7.238;2023-05-19T09:33:41;99201.91;;;15.57;52.15
16431;BME280;8325;49.284;7.238;2023-05-19T09:37:56;99191.53;;;15.71;52.72
16431;BME280;8325;49.284;7.238;2023-05-19T09:42:08;99187.16;;;15.84;51.89
16431;BME280;8325;49.284;7.238;2023-05-19T09:46:23;99192.38;;;15.78;52.37
16431;BME280;8325;49.284;7.238;2023-05-19T09:50:38;99197.78;;;15.98;52.19
16431;BME280;8325;49.284;7.238;2023-05-19T09:54:50;99197.06;;;15.82;52.36
16431;BME280;8325;49.284;7.238;2023-05-19T09:59:02;99183.03;;;15.75;51.56
16431;BME280;8325;49.284;7.238;2023-05-19T10:03:14;99181.44;;;15.74;52.02
16431;BME280;8325;49.284;7.238;2023-05-19T10:07:28;99178.81;;;16.09;51.43
16431;BME280;8325;49.284;7.238;2023-05-19T10:11:40;99178.53;;;15.97;50.47
16431;BME280;8325;49.284;7.238;2023-05-19T10:15:52;99187.34;;;16.52;49.93
16431;BME280;8325;49.284;7.238;2023-05-19T10:20:14;99176.72;;;16.32;49.16
16431;BME280;8325;49.284;7.238;2023-05-19T10:24:26;99179.22;;;16.13;48.74
16431;BME280;8325;49.284;7.238;2023-05-19T10:28:39;99178.53;;;16.32;48.24
16431;BME280;8325;49.284;7.238;2023-05-19T10:32:54;99162.22;;;16.15;47.35
16431;BME280;8325;49.284;7.238;2023-05-19T10:37:16;99149.31;;;16.27;47.41
16431;BME280;8325;49.284;7.238;2023-05-19T10:45:52;99140.53;;;16.74;46.59
16431;BME280;8325;49.284;7.238;2023-05-19T10:50:05;99152.38;;;16.85;46.05
16431;BME280;8325;49.284;7.238;2023-05-19T10:54:37;99147.53;;;17.09;46.94
16431;BME280;8325;49.284;7.238;2023-05-19T10:58:51;99158.88;;;16.96;45.47
16431;BME280;8325;49.284;7.238;2023-05-19T11:03:13;99137.00;;;17.22;46.21
16431;BME280;8325;49.284;7.238;2023-05-19T11:07:25;99131.91;;;17.20;44.47
16431;BME280;8325;49.284;7.238;2023-05-19T11:16:06;99126.00;;;17.45;43.88
16431;BME280;8325;49.284;7.238;2023-05-19T11:20:28;99122.13;;;17.61;44.59
16431;BME280;8325;49.284;7.238;2023-05-19T11:24:47;99126.63;;;17.54;44.10
16431;BME280;8325;49.284;7.238;2023-05-19T11:29:01;99106.53;;;17.53;43.71
16431;BME280;8325;49.284;7.238;2023-05-19T11:33:13;99102.84;;;17.74;42.58
16431;BME280;8325;49.284;7.238;2023-05-19T11:37:25;99117.91;;;17.80;41.63
16431;BME280;8325;49.284;7.238;2023-05-19T11:41:40;99101.94;;;18.06;42.28
16431;BME280;8325;49.284;7.238;2023-05-19T11:45:58;99115.56;;;18.03;41.58
16431;BME280;8325;49.284;7.238;2023-05-19T11:50:25;99104.59;;;18.06;40.40
16431;BME280;8325;49.284;7.238;2023-05-19T11:54:36;99102.75;;;18.13;42.03
16431;BME280;8325;49.284;7.238;2023-05-19T11:58:52;99098.28;;;18.01;41.30
16431;BME280;8325;49.284;7.238;2023-05-19T12:03:04;99089.25;;;18.28;41.00
16431;BME280;8325;49.284;7.238;2023-05-19T12:07:17;99100.59;;;18.42;40.36
16431;BME280;8325;49.284;7.238;2023-05-19T12:11:29;99101.78;;;18.46;40.39
16431;BME280;8325;49.284;7.238;2023-05-19T12:15:42;99096.66;;;18.06;40.22
16431;BME280;8325;49.284;7.238;2023-05-19T12:19:53;99078.81;;;18.40;41.16
16431;BME280;8325;49.284;7.238;2023-05-19T12:24:05;99073.19;;;18.61;41.61
16431;BME280;8325;49.284;7.238;2023-05-19T12:28:18;99086.28;;;18.50;40.94
16431;BME280;8325;49.284;7.238;2023-05-19T12:32:32;99071.25;;;18.44;41.19
16431;BME280;8325;49.284;7.238;2023-05-19T12:36:44;99093.50;;;18.36;41.43
16431;BME280;8325;49.284;7.238;2023-05-19T12:40:59;99099.09;;;18.53;40.81
16431;BME280;8325;49.284;7.238;2023-05-19T12:45:11;99083.81;;;18.55;41.80
16431;BME280;8325;49.284;7.238;2023-05-19T12:49:22;99080.00;;;18.44;41.42
16431;BME280;8325;49.284;7.238;2023-05-19T12:53:36;99076.25;;;18.27;41.89
16431;BME280;8325;49.284;7.238;2023-05-19T12:57:49;99095.94;;;18.31;42.39
16431;BME280;8325;49.284;7.238;2023-05-19T13:02:02;99073.34;;;18.35;42.70
16431;BME280;8325;49.284;7.238;2023-05-19T13:06:13;99086.66;;;18.60;42.07
16431;BME280;8325;49.284;7.238;2023-05-19T13:10:26;99073.47;;;18.47;41.59
16431;BME280;8325;49.284;7.238;2023-05-19T13:14:38;99087.13;;;18.44;42.57
16431;BME280;8325;49.284;7.238;2023-05-19T13:18:52;99072.88;;;18.06;43.18
16431;BME280;8325;49.284;7.238;2023-05-19T13:23:04;99074.25;;;18.15;43.14
16431;BME280;8325;49.284;7.238;2023-05-19T13:27:16;99063.78;;;18.34;43.08
16431;BME280;8325;49.284;7.238;2023-05-19T13:31:27;99061.00;;;18.29;42.60
16431;BME280;8325;49.284;7.238;2023-05-19T13:35:39;99071.81;;;18.21;41.85
16431;BME280;8325;49.284;7.238;2023-05-19T13:39:50;99066.09;;;18.24;42.93
16431;BME280;8325;49.284;7.238;2023-05-19T13:44:02;99065.59;;;18.40;43.40
16431;BME280;8325;49.284;7.238;2023-05-19T13:48:14;99064.34;;;18.43;42.78
16431;BME280;8325;49.284;7.238;2023-05-19T13:52:25;99066.09;;;18.24;43.58
16431;BME280;8325;49.284;7.238;2023-05-19T13:56:57;99056.91;;;18.33;41.62
16431;BME280;8325;49.284;7.238;2023-05-19T14:01:09;99055.81;;;18.40;42.73
16431;BME280;8325;49.284;7.238;2023-05-19T14:05:20;99053.03;;;18.35;42.06
16431;BME280;8325;49.284;7.238;2023-05-19T14:09:32;99044.28;;;18.67;42.14
16431;BME280;8325;49.284;7.238;2023-05-19T14:13:44;99046.53;;;18.63;41.82
16431;BME280;8325;49.284;7.238;2023-05-19T14:17:56;99040.47;;;18.56;42.13
16431;BME280;8325;49.284;7.238;2023-05-19T14:22:09;99048.78;;;18.59;42.06
16431;BME280;8325;49.284;7.238;2023-05-19T14:26:21;99036.72;;;18.38;41.93
16431;BME280;8325;49.284;7.238;2023-05-19T14:30:32;99037.88;;;18.49;42.02
16431;BME280;8325;49.284;7.238;2023-05-19T14:34:44;99035.81;;;18.20;43.26
16431;BME280;8325;49.284;7.238;2023-05-19T14:38:56;99049.00;;;18.26;43.08
16431;BME280;8325;49.284;7.238;2023-05-19T14:43:08;99054.38;;;18.06;43.76
16431;BME280;8325;49.284;7.238;2023-05-19T14:47:19;99035.28;;;18.04;43.56
16431;BME280;8325;49.284;7.238;2023-05-19T14:51:31;99040.56;;;17.98;43.84
16431;BME280;8325;49.284;7.238;2023-05-19T14:55:43;99046.03;;;18.03;44.03
16431;BME280;8325;49.284;7.238;2023-05-19T14:59:54;99041.44;;;17.85;44.88
16431;BME280;8325;49.284;7.238;2023-05-19T15:04:06;99044.28;;;17.90;45.26
16431;BME280;8325;49.284;7.238;2023-05-19T15:08:18;99042.66;;;17.76;45.38
16431;BME280;8325;49.284;7.238;2023-05-19T15:12:29;99043.94;;;17.60;45.09
16431;BME280;8325;49.284;7.238;2023-05-19T15:16:41;99033.38;;;17.53;45.84
16431;BME280;8325;49.284;7.238;2023-05-19T15:20:53;99034.59;;;17.51;46.02
16431;BME280;8325;49.284;7.238;2023-05-19T15:25:05;99035.41;;;17.64;46.70
16431;BME280;8325;49.284;7.238;2023-05-19T15:29:17;99035.81;;;17.61;47.19
16431;BME280;8325;49.284;7.238;2023-05-19T15:33:28;99041.50;;;17.52;47.39
16431;BME280;8325;49.284;7.238;2023-05-19T15:37:40;99043.56;;;17.43;46.81
16431;BME280;8325;49.284;7.238;2023-05-19T15:41:51;99044.81;;;17.34;47.49
16431;BME280;8325;49.284;7.238;2023-05-19T15:46:03;99046.03;;;17.24;48.31
16431;BME280;8325;49.284;7.238;2023-05-19T15:50:15;99043.19;;;17.19;48.64
16431;BME280;8325;49.284;7.238;2023-05-19T15:54:27;99049.91;;;17.15;48.73
16431;BME280;8325;49.284;7.238;2023-05-19T15:58:39;99037.09;;;16.99;49.40
16431;BME280;8325;49.284;7.238;2023-05-19T16:02:50;99035.88;;;16.95;49.88
16431;BME280;8325;49.284;7.238;2023-05-19T16:07:02;99039.94;;;16.97;50.43
16431;BME280;8325;49.284;7.238;2023-05-19T16:11:17;99025.72;;;16.98;50.01
16431;BME280;8325;49.284;7.238;2023-05-19T16:15:30;99027.38;;;17.06;49.97
16431;BME280;8325;49.284;7.238;2023-05-19T16:19:42;99022.91;;;17.07;50.37
16431;BME280;8325;49.284;7.238;2023-05-19T16:23:54;99023.69;;;17.07;50.07
16431;BME280;8325;49.284;7.238;2023-05-19T16:28:05;99023.69;;;17.07;50.14
16431;BME280;8325;49.284;7.238;2023-05-19T16:32:17;99025.31;;;17.08;50.09
16431;BME280;8325;49.284;7.238;2023-05-19T16:36:28;99018.44;;;17.07;49.19
16431;BME280;8325;49.284;7.238;2023-05-19T16:40:40;99012.53;;;16.98;49.84
16431;BME280;8325;49.284;7.238;2023-05-19T16:44:52;99004.59;;;17.05;49.74
16431;BME280;8325;49.284;7.238;2023-05-19T16:49:04;99005.03;;;17.15;49.46
16431;BME280;8325;49.284;7.238;2023-05-19T16:53:16;99003.78;;;17.11;49.92
16431;BME280;8325;49.284;7.238;2023-05-19T16:57:27;98999.31;;;17.12;49.32
16431;BME280;8325;49.284;7.238;2023-05-19T17:01:39;98999.94;;;17.07;50.10
16431;BME280;8325;49.284;7.238;2023-05-19T17:05:51;99002.19;;;17.10;50.23
16431;BME280;8325;49.284;7.238;2023-05-19T17:10:03;99006.44;;;17.11;50.38
16431;BME280;8325;49.284;7.238;2023-05-19T17:14:14;99004.41;;;17.13;50.49
16431;BME280;8325;49.284;7.238;2023-05-19T17:18:26;99013.56;;;17.04;49.66
16431;BME280;8325;49.284;7.238;2023-05-19T17:22:38;99026.53;;;16.99;50.36
16431;BME280;8325;49.284;7.238;2023-05-19T17:26:50;99020.88;;;16.89;50.83
16431;BME280;8325;49.284;7.238;2023-05-19T17:31:08;99021.47;;;16.77;51.10
16431;BME280;8325;49.284;7.238;2023-05-19T17:35:20;99025.75;;;16.78;51.68
16431;BME280;8325;49.284;7.238;2023-05-19T17:39:31;99029.41;;;16.84;52.24
16431;BME280;8325;49.284;7.238;2023-05-19T17:43:43;99031.03;;;16.78;52.39
16431;BME280;8325;49.284;7.238;2023-05-19T17:47:55;99028.38;;;16.78;53.19
16431;BME280;8325;49.284;7.238;2023-05-19T17:52:07;99021.25;;;16.72;52.98
16431;BME280;8325;49.284;7.238;2023-05-19T17:56:19;99024.69;;;16.73;52.94
16431;BME280;8325;49.284;7.238;2023-05-19T18:00:32;99029.75;;;16.61;52.76
16431;BME280;8325;49.284;7.238;2023-05-19T18:04:44;99028.13;;;16.60;53.23
16431;BME280;8325;49.284;7.238;2023-05-19T18:08:57;99026.88;;;16.56;53.32
16431;BME280;8325;49.284;7.238;2023-05-19T18:13:11;99031.34;;;16.49;53.86
16431;BME280;8325;49.284;7.238;2023-05-19T18:17:25;99019.59;;;16.45;54.57
16431;BME280;8325;49.284;7.238;2023-05-19T18:21:37;99032.13;;;16.36;54.73
16431;BME280;8325;49.284;7.238;2023-05-19T18:25:49;99015.28;;;16.30;54.90
16431;BME280;8325;49.284;7.238;2023-05-19T18:30:02;99009.78;;;16.25;55.30
16431;BME280;8325;49.284;7.238;2023-05-19T18:34:13;99017.50;;;16.20;56.66
16431;BME280;8325;49.284;7.238;2023-05-19T18:38:25;99020.53;;;16.10;56.67
16431;BME280;8325;49.284;7.238;2023-05-19T18:42:36;99021.09;;;16.06;57.09
16431;BME280;8325;49.284;7.238;2023-05-19T18:46:48;99015.00;;;15.99;58.73
16431;BME280;8325;49.284;7.238;2023-05-19T18:51:00;99006.25;;;15.92;60.66
16431;BME280;8325;49.284;7.238;2023-05-19T18:55:13;99007.41;;;15.82;60.08
16431;BME280;8325;49.284;7.238;2023-05-19T18:59:25;99004.34;;;15.72;61.11
16431;BME280;8325;49.284;7.238;2023-05-19T19:03:37;99012.84;;;15.68;63.09
16431;BME280;8325;49.284;7.238;2023-05-19T19:07:48;99015.44;;;15.61;62.43
16431;BME280;8325;49.284;7.238;2023-05-19T19:12:00;99020.44;;;15.56;63.48
16431;BME280;8325;49.284;7.238;2023-05-19T19:16:12;99024.88;;;15.49;62.52
16431;BME280;8325;49.284;7.238;2023-05-19T19:20:24;99022.63;;;15.46;63.27
16431;BME280;8325;49.284;7.238;2023-05-19T19:24:35;99020.78;;;15.39;64.45
16431;BME280;8325;49.284;7.238;2023-05-19T19:28:47;99030.03;;;15.35;65.89
16431;BME280;8325;49.284;7.238;2023-05-19T19:32:58;99033.44;;;15.29;66.83
16431;BME280;8325;49.284;7.238;2023-05-19T19:37:10;99026.31;;;15.23;66.82
16431;BME280;8325;49.284;7.238;2023-05-19T19:41:24;99026.31;;;15.23;68.98
16431;BME280;8325;49.284;7.238;2023-05-19T19:45:38;99023.22;;;15.13;70.88
16431;BME280;8325;49.284;7.238;2023-05-19T19:49:49;99026.88;;;15.12;69.79
16431;BME280;8325;49.284;7.238;2023-05-19T19:54:02;99027.63;;;15.06;70.45
16431;BME280;8325;49.284;7.238;2023-05-19T19:58:14;99029.81;;;15.02;70.68
16431;BME280;8325;49.284;7.238;2023-05-19T20:02:25;99029.63;;;15.04;71.34
16431;BME280;8325;49.284;7.238;2023-05-19T20:06:37;99027.38;;;15.01;73.05
16431;BME280;8325;49.284;7.238;2023-05-19T20:10:49;99033.28;;;15.03;71.05
16431;BME280;8325;49.284;7.238;2023-05-19T20:15:00;99039.09;;;14.98;71.54
16431;BME280;8325;49.284;7.238;2023-05-19T20:19:12;99033.78;;;14.91;71.52
16431;BME280;8325;49.284;7.238;2023-05-19T20:23:24;99032.34;;;14.89;73.27
16431;BME280;8325;49.284;7.238;2023-05-19T20:27:35;99031.09;;;14.85;74.04
16431;BME280;8325;49.284;7.238;2023-05-19T20:31:47;99034.53;;;14.85;74.05
16431;BME280;8325;49.284;7.238;2023-05-19T20:35:58;99029.66;;;14.82;73.43
16431;BME280;8325;49.284;7.238;2023-05-19T20:40:10;99023.53;;;14.75;75.09
16431;BME280;8325;49.284;7.238;2023-05-19T20:44:22;99029.16;;;14.72;74.34
16431;BME280;8325;49.284;7.238;2023-05-19T20:48:34;99022.25;;;14.71;74.90
16431;BME280;8325;49.284;7.238;2023-05-19T20:52:46;99029.91;;;14.66;74.75
16431;BME280;8325;49.284;7.238;2023-05-19T20:56:58;99031.91;;;14.64;74.29
16431;BME280;8325;49.284;7.238;2023-05-19T21:01:09;99030.31;;;14.63;74.40
16431;BME280;8325;49.284;7.238;2023-05-19T21:05:21;99029.66;;;14.61;74.24
16431;BME280;8325;49.284;7.238;2023-05-19T21:09:33;99027.03;;;14.61;74.40
16431;BME280;8325;49.284;7.238;2023-05-19T21:13:45;99022.16;;;14.58;73.29
16431;BME280;8325;49.284;7.238;2023-05-19T21:17:56;99030.03;;;14.58;73.32
16431;BME280;8325;49.284;7.238;2023-05-19T21:22:08;99031.06;;;14.57;72.79
16431;BME280;8325;49.284;7.238;2023-05-19T21:26:20;99038.09;;;14.56;72.76
